Time;durP1;ratioP1;P1;durP2;ratioP2;P2;SDS_P1;SDS_P2;PMS_P1;PMS_P2;Temp;Humidity;BMP_temperature;BMP_pressure;BME280_temperature;BME280_humidity;BME280_pressure;Samples;Min_cycle;Max_cycle;Signal;HPM_P1;HPM_P2
2024/01/29 00:00:58;;;;;;;5.50;2.07;;;5.80;77.00;;;;;;6332634;22;20274;-85
2024/01/29 00:03:27;;;;;;;1.47;1.40;;;5.80;77.00;;;;;;6329069;22;20597;-84
2024/01/29 00:05:56;;;;;;;4.70;3.63;;;5.80;77.00;;;;;;6332869;22;20172;-84
2024/01/29 00:08:25;;;;;;;2.60;2.40;;;5.80;77.10;;;;;;6333940;22;20271;-85
2024/01/29 00:10:53;;;;;;;5.83;4.30;;;5.80;77.20;;;;;;6332484;22;20279;-85
2024/01/29 00:13:23;;;;;;;16.07;3.83;;;5.80;77.20;;;;;;6331654;22;20175;-85
2024/01/29 00:15:52;;;;;;;3.97;2.67;;;5.80;77.30;;;;;;6332263;22;20616;-85
2024/01/29 00:18:21;;;;;;;1.97;1.80;;;5.70;77.40;;;;;;6334327;22;20172;-85
2024/01/29 00:20:49;;;;;;;3.33;3.03;;;5.70;77.40;;;;;;6332402;22;20681;-85
2024/01/29 00:23:18;;;;;;;3.00;2.67;;;5.70;77.50;;;;;;6331051;22;20170;-85
2024/01/29 00:25:47;;;;;;;3.00;2.80;;;5.70;77.60;;;;;;6329553;22;20200;-85
2024/01/29 00:28:16;;;;;;;8.30;2.23;;;5.70;77.70;;;;;;6332461;22;20255;-84
2024/01/29 00:30:46;;;;;;;4.67;1.70;;;5.60;77.70;;;;;;6332826;22;20165;-84
2024/01/29 00:33:14;;;;;;;1.93;1.73;;;5.60;77.80;;;;;;6330964;22;20172;-84
2024/01/29 00:35:43;;;;;;;3.57;2.13;;;5.50;77.80;;;;;;6330345;22;20491;-84
2024/01/29 00:38:12;;;;;;;5.45;2.38;;;5.50;77.80;;;;;;6331676;22;20389;-84
2024/01/29 00:40:41;;;;;;;3.63;1.70;;;5.50;78.40;;;;;;6331732;22;20271;-83
2024/01/29 00:43:09;;;;;;;1.60;1.50;;;5.60;78.70;;;;;;6331962;22;20180;-85
2024/01/29 00:45:38;;;;;;;2.40;2.23;;;5.60;78.60;;;;;;6330757;22;20165;-84
2024/01/29 00:48:08;;;;;;;0.97;0.97;;;5.50;78.60;;;;;;6332751;22;20174;-84
2024/01/29 00:50:37;;;;;;;4.33;1.23;;;5.50;78.40;;;;;;6331697;22;20208;-84
2024/01/29 00:53:05;;;;;;;1.43;1.33;;;5.60;78.40;;;;;;6331196;22;20612;-85
2024/01/29 00:55:34;;;;;;;2.07;1.87;;;5.50;78.30;;;;;;6329781;22;20205;-84
2024/01/29 00:58:02;;;;;;;1.90;1.80;;;5.60;78.30;;;;;;6333237;22;20172;-85
2024/01/29 01:00:31;;;;;;;1.57;1.47;;;5.50;78.30;;;;;;6332906;22;20168;-85
2024/01/29 01:03:00;;;;;;;1.90;1.80;;;5.50;78.20;;;;;;6331007;22;20192;-85
2024/01/29 01:05:30;;;;;;;2.30;2.13;;;5.50;78.20;;;;;;6326562;22;20491;-84
2024/01/29 01:08:00;;;;;;;0.80;0.80;;;5.50;78.30;;;;;;6334513;22;20164;-85
2024/01/29 01:10:28;;;;;;;4.83;3.47;;;5.50;78.30;;;;;;6333075;22;20490;-85
2024/01/29 01:12:57;;;;;;;1.23;1.23;;;5.50;78.30;;;;;;6332527;22;20171;-84
2024/01/29 01:15:25;;;;;;;1.77;1.67;;;5.50;78.30;;;;;;6328763;22;20174;-85
2024/01/29 01:17:56;;;;;;;3.90;2.53;;;5.50;78.30;;;;;;6335945;22;20407;-84
2024/01/29 01:20:40;;;;;;;3.03;1.90;;;5.50;78.40;;;;;;6331405;22;20169;-85
2024/01/29 01:23:08;;;;;;;3.33;3.07;;;5.50;78.50;;;;;;6330691;22;20206;-85
2024/01/29 01:28:33;;;;;;;2.03;1.93;;;5.50;78.60;;;;;;6331472;22;20168;-84
2024/01/29 01:31:15;;;;;;;1.97;1.87;;;5.50;78.60;;;;;;6330704;22;20175;-84
2024/01/29 01:33:57;;;;;;;2.63;2.43;;;5.50;78.60;;;;;;6327690;22;20257;-84
2024/01/29 01:39:10;;;;;;;3.27;2.40;;;5.50;78.60;;;;;;6331573;22;20172;-85
2024/01/29 01:41:39;;;;;;;2.43;2.23;;;5.50;78.60;;;;;;6331965;22;20196;-83
2024/01/29 01:44:07;;;;;;;1.70;1.60;;;5.50;78.60;;;;;;6329879;22;20164;-83
2024/01/29 01:46:35;;;;;;;4.33;2.50;;;5.50;78.60;;;;;;6330106;22;20534;-83
2024/01/29 01:52:02;;;;;;;6.80;2.10;;;5.50;78.60;;;;;;6330362;22;20175;-84
2024/01/29 01:57:30;;;;;;;2.30;2.20;;;5.50;78.50;;;;;;6334568;22;20218;-83
2024/01/29 01:59:59;;;;;;;5.00;2.83;;;5.50;78.50;;;;;;6339818;22;20176;-84
2024/01/29 02:02:28;;;;;;;5.50;2.40;;;5.50;78.50;;;;;;6351286;22;20319;-84
2024/01/29 02:04:57;;;;;;;3.43;1.93;;;5.40;78.30;;;;;;6341609;22;20180;-84
2024/01/29 02:07:27;;;;;;;1.67;1.57;;;5.40;78.40;;;;;;6332955;22;20194;-83
2024/01/29 02:09:56;;;;;;;1.93;1.83;;;5.30;78.40;;;;;;6331938;22;20189;-84
2024/01/29 02:12:25;;;;;;;4.13;3.33;;;5.30;78.50;;;;;;6333503;22;20459;-83
2024/01/29 02:14:54;;;;;;;2.53;2.33;;;5.30;78.50;;;;;;6327604;22;20855;-84
2024/01/29 02:17:22;;;;;;;2.17;1.90;;;5.30;78.50;;;;;;6331698;22;20168;-83
2024/01/29 02:19:51;;;;;;;2.43;2.27;;;5.20;78.40;;;;;;6331271;22;20173;-83
2024/01/29 02:22:19;;;;;;;2.03;1.93;;;5.20;79.40;;;;;;6331408;22;20522;-83
2024/01/29 02:24:49;;;;;;;2.40;1.90;;;5.20;78.50;;;;;;6330751;22;20215;-83
2024/01/29 02:27:18;;;;;;;1.27;1.23;;;5.10;78.60;;;;;;6331517;22;20175;-83
2024/01/29 02:29:47;;;;;;;4.70;3.07;;;5.10;78.80;;;;;;6333203;22;20175;-83
2024/01/29 02:32:16;;;;;;;3.50;2.90;;;5.10;78.90;;;;;;6329789;22;20407;-83
2024/01/29 02:34:45;;;;;;;1.30;1.20;;;5.10;79.10;;;;;;6329048;22;20226;-83
2024/01/29 02:37:14;;;;;;;1.43;1.33;;;5.10;79.30;;;;;;6331864;22;20172;-83
2024/01/29 02:39:42;;;;;;;2.50;2.30;;;5.10;79.20;;;;;;6336226;22;20223;-83
2024/01/29 02:42:12;;;;;;;2.50;2.30;;;5.10;79.20;;;;;;6332257;22;20242;-83
2024/01/29 02:44:41;;;;;;;1.03;1.03;;;5.10;79.20;;;;;;6328853;22;20164;-83
2024/01/29 02:47:09;;;;;;;1.93;1.83;;;5.10;79.20;;;;;;6330409;22;20481;-83
2024/01/29 02:49:38;;;;;;;3.57;2.87;;;5.10;79.50;;;;;;6332251;22;20160;-83
2024/01/29 02:52:07;;;;;;;1.77;1.60;;;5.10;79.80;;;;;;6331904;22;20542;-83
2024/01/29 02:54:35;;;;;;;7.43;2.93;;;5.10;80.00;;;;;;6327322;22;20171;-83
2024/01/29 02:57:05;;;;;;;2.80;1.97;;;5.10;80.20;;;;;;6334903;22;20226;-84
2024/01/29 02:59:34;;;;;;;2.93;2.73;;;5.10;80.40;;;;;;6330145;22;20165;-83
2024/01/29 03:02:04;;;;;;;3.07;2.70;;;5.10;80.80;;;;;;6332106;22;20487;-83
2024/01/29 03:04:32;;;;;;;3.40;3.10;;;5.10;80.80;;;;;;6327359;22;20624;-83
2024/01/29 03:07:01;;;;;;;2.50;1.80;;;5.10;80.90;;;;;;6332430;22;20172;-83
2024/01/29 03:09:29;;;;;;;2.23;1.73;;;5.10;81.00;;;;;;6332394;22;20620;-83
2024/01/29 03:11:58;;;;;;;2.47;2.37;;;5.10;81.10;;;;;;6332351;22;20282;-83
2024/01/29 03:14:26;;;;;;;1.63;1.53;;;5.10;81.20;;;;;;6326062;22;20616;-83
2024/01/29 03:19:39;;;;;;;2.30;2.17;;;5.20;81.40;;;;;;6329616;22;20518;-83
2024/01/29 03:22:08;;;;;;;3.17;2.87;;;5.20;81.70;;;;;;6331458;22;20564;-83
2024/01/29 03:24:50;;;;;;;4.63;4.20;;;5.20;81.80;;;;;;6327381;22;20195;-83
2024/01/29 03:27:19;;;;;;;5.50;4.53;;;5.20;81.90;;;;;;6331653;22;20554;-83
2024/01/29 03:29:47;;;;;;;3.67;3.37;;;5.20;82.00;;;;;;6330594;22;20632;-84
2024/01/29 03:32:17;;;;;;;3.33;3.03;;;5.20;82.00;;;;;;6330279;22;20164;-84
2024/01/29 03:34:46;;;;;;;2.10;1.93;;;5.30;82.20;;;;;;6327709;22;20680;-84
2024/01/29 03:39:57;;;;;;;3.07;2.17;;;5.30;82.20;;;;;;6329558;22;20165;-84
2024/01/29 03:42:25;;;;;;;5.60;4.10;;;5.40;82.30;;;;;;6328649;22;20729;-84
2024/01/29 03:45:09;;;;;;;2.47;2.27;;;5.40;82.20;;;;;;6325104;22;20172;-84
2024/01/29 03:53:31;;;;;;;3.17;2.87;;;5.50;82.30;;;;;;6325812;22;20344;-85
2024/01/29 03:55:59;;;;;;;2.30;2.00;;;5.50;82.40;;;;;;6332489;22;20203;-84
2024/01/29 03:58:28;;;;;;;7.43;1.93;;;5.50;82.40;;;;;;6334990;22;20213;-84
2024/01/29 04:00:56;;;;;;;3.10;2.13;;;5.60;82.30;;;;;;6331375;22;20646;-84
2024/01/29 04:03:26;;;;;;;3.70;2.70;;;5.60;82.50;;;;;;6328563;22;20453;-84
2024/01/29 04:05:55;;;;;;;1.53;1.43;;;5.60;82.40;;;;;;6330021;22;20526;-84
2024/01/29 04:08:24;;;;;;;2.70;2.50;;;5.70;82.30;;;;;;6332591;22;20169;-84
2024/01/29 04:10:53;;;;;;;2.57;1.43;;;5.70;82.20;;;;;;6333077;22;20207;-84
2024/01/29 04:13:21;;;;;;;3.90;2.43;;;5.70;82.30;;;;;;6330627;22;20245;-85
2024/01/29 04:15:50;;;;;;;10.13;3.23;;;5.80;82.20;;;;;;6332292;22;20659;-84
2024/01/29 04:18:18;;;;;;;1.97;1.77;;;5.80;82.20;;;;;;6336751;22;20169;-84
2024/01/29 04:20:49;;;;;;;8.60;3.13;;;5.80;82.20;;;;;;6330073;22;20264;-84
2024/01/29 04:23:18;;;;;;;3.23;2.97;;;5.80;82.30;;;;;;6332588;22;20193;-87
2024/01/29 04:25:46;;;;;;;4.23;3.17;;;5.80;82.40;;;;;;6337284;22;20385;-89
2024/01/29 04:31:11;;;;;;;5.03;3.63;;;5.80;82.40;;;;;;6331377;22;20171;-86
2024/01/29 04:33:54;;;;;;;3.00;2.70;;;5.90;82.40;;;;;;6330424;22;20840;-87
2024/01/29 04:36:24;;;;;;;2.50;2.30;;;5.90;82.40;;;;;;6334728;22;20256;-87
2024/01/29 04:38:52;;;;;;;2.73;2.43;;;5.90;82.40;;;;;;6336920;22;20170;-87
2024/01/29 04:41:22;;;;;;;3.50;2.50;;;5.90;82.40;;;;;;6353631;22;20249;-85
2024/01/29 04:43:50;;;;;;;5.93;2.47;;;5.90;82.40;;;;;;6350711;22;20284;-84
2024/01/29 04:46:19;;;;;;;3.43;2.90;;;6.00;82.50;;;;;;6334297;22;20665;-84
2024/01/29 04:52:13;;;;;;;12.30;3.93;;;6.00;82.50;;;;;;6333103;22;20177;-84
2024/01/29 04:54:56;;;;;;;0.87;0.87;;;6.00;82.50;;;;;;6329196;22;20174;-85
2024/01/29 04:57:25;;;;;;;2.67;2.13;;;6.00;82.50;;;;;;6334181;22;20170;-85
2024/01/29 04:59:54;;;;;;;11.70;5.63;;;6.00;82.50;;;;;;6333154;22;20173;-83
2024/01/29 05:02:22;;;;;;;3.07;2.53;;;6.00;82.50;;;;;;6332723;22;20275;-83
2024/01/29 05:04:51;;;;;;;1.73;1.63;;;6.00;82.50;;;;;;6327424;22;20288;-83
2024/01/29 05:07:20;;;;;;;3.60;3.23;;;6.00;82.50;;;;;;6333191;22;20171;-83
2024/01/29 05:09:48;;;;;;;4.07;2.97;;;6.00;82.60;;;;;;6330602;22;20175;-83
2024/01/29 05:12:18;;;;;;;2.50;2.17;;;6.00;82.70;;;;;;6333302;22;20583;-83
2024/01/29 05:14:47;;;;;;;6.20;3.13;;;6.00;82.70;;;;;;6328490;22;20178;-82
2024/01/29 05:17:16;;;;;;;1.57;1.47;;;6.00;82.70;;;;;;6331826;22;20180;-83
2024/01/29 05:19:45;;;;;;;8.37;4.63;;;6.00;82.90;;;;;;6334537;22;21120;-83
2024/01/29 05:22:14;;;;;;;3.27;2.43;;;6.00;82.90;;;;;;6330278;22;20173;-84
2024/01/29 05:24:42;;;;;;;3.43;3.13;;;6.00;83.10;;;;;;6328578;22;20196;-84
2024/01/29 05:27:11;;;;;;;1.63;1.53;;;6.00;83.10;;;;;;6331591;22;20744;-85
2024/01/29 05:29:41;;;;;;;2.57;2.37;;;6.00;83.10;;;;;;6333652;22;20206;-85
2024/01/29 05:32:09;;;;;;;1.40;1.30;;;5.90;83.20;;;;;;6332326;22;20169;-84
2024/01/29 05:34:38;;;;;;;5.63;2.57;;;5.90;83.20;;;;;;6327712;22;20166;-85
2024/01/29 05:37:07;;;;;;;0.80;0.80;;;5.90;83.10;;;;;;6334126;22;20199;-83
2024/01/29 05:39:36;;;;;;;2.30;2.03;;;5.90;83.20;;;;;;6333987;22;20176;-83
2024/01/29 05:42:04;;;;;;;1.00;1.00;;;5.90;83.20;;;;;;6333417;22;20170;-83
2024/01/29 05:44:33;;;;;;;1.73;1.60;;;5.90;83.20;;;;;;6329932;22;20196;-83
2024/01/29 05:47:03;;;;;;;1.57;1.47;;;6.00;83.30;;;;;;6331500;22;20561;-82
2024/01/29 05:49:32;;;;;;;2.20;2.00;;;6.00;83.20;;;;;;6332164;22;20635;-82
2024/01/29 05:52:00;;;;;;;2.67;2.43;;;6.00;83.20;;;;;;6332077;22;20495;-81
2024/01/29 05:54:29;;;;;;;2.17;1.90;;;6.00;83.20;;;;;;6327094;22;20681;-83
2024/01/29 05:56:58;;;;;;;5.22;3.45;;;6.00;83.20;;;;;;6330473;22;20456;-83
2024/01/29 05:59:26;;;;;;;1.30;1.27;;;6.10;83.40;;;;;;6331536;22;20170;-83
2024/01/29 06:01:55;;;;;;;3.77;1.57;;;6.10;83.40;;;;;;6331916;22;20201;-82
2024/01/29 06:18:40;;;;;;;2.40;2.23;;;6.20;83.10;;;;;;6329916;22;20661;-83
2024/01/29 06:21:09;;;;;;;2.00;1.90;;;6.20;83.00;;;;;;6332103;22;20512;-83
2024/01/29 06:23:39;;;;;;;2.87;2.10;;;6.20;83.00;;;;;;6330694;22;20198;-84
2024/01/29 06:26:07;;;;;;;1.67;1.57;;;6.20;83.00;;;;;;6332872;22;20171;-83
2024/01/29 06:28:36;;;;;;;1.63;1.53;;;6.20;82.80;;;;;;6331806;22;20189;-84
2024/01/29 06:31:04;;;;;;;0.67;0.67;;;6.30;82.80;;;;;;6331684;22;20166;-83
2024/01/29 06:33:35;;;;;;;3.70;2.60;;;6.30;82.80;;;;;;6328623;22;20175;-82
2024/01/29 06:36:03;;;;;;;1.87;1.77;;;6.30;82.70;;;;;;6330498;22;20173;-83
2024/01/29 06:38:32;;;;;;;3.23;2.80;;;6.30;82.60;;;;;;6331735;22;20183;-84
2024/01/29 06:41:02;;;;;;;2.73;2.53;;;6.30;82.50;;;;;;6332374;22;20169;-83
2024/01/29 06:43:31;;;;;;;1.27;1.13;;;6.30;82.40;;;;;;6328559;22;20208;-84
2024/01/29 06:46:00;;;;;;;2.70;2.50;;;6.30;82.20;;;;;;6329210;22;20385;-85
2024/01/29 06:48:28;;;;;;;3.27;2.97;;;6.30;82.20;;;;;;6329739;22;20179;-84
2024/01/29 06:50:57;;;;;;;2.10;2.00;;;6.30;82.10;;;;;;6331026;22;20203;-84
2024/01/29 06:53:26;;;;;;;4.80;2.67;;;6.30;82.00;;;;;;6328854;22;20177;-85
2024/01/29 06:58:53;;;;;;;4.57;2.83;;;6.30;81.90;;;;;;6334846;22;20174;-86
2024/01/29 07:01:22;;;;;;;1.47;1.37;;;6.40;82.00;;;;;;6332859;22;20527;-86
2024/01/29 07:04:04;;;;;;;9.30;2.53;;;6.40;81.90;;;;;;6329836;22;20263;-87
2024/01/29 07:09:16;;;;;;;3.53;2.20;;;6.40;81.90;;;;;;6331206;22;20170;-85
2024/01/29 07:11:45;;;;;;;0.80;0.80;;;6.40;82.00;;;;;;6333578;22;20182;-85
2024/01/29 07:14:15;;;;;;;3.53;2.20;;;6.50;82.10;;;;;;6331162;22;20167;-87
2024/01/29 07:16:43;;;;;;;4.00;1.33;;;6.50;82.00;;;;;;6337059;22;20171;-86
2024/01/29 07:19:12;;;;;;;3.63;1.90;;;6.60;82.00;;;;;;6345259;22;20175;-87
2024/01/29 07:21:41;;;;;;;2.33;1.77;;;6.60;81.90;;;;;;6350578;22;20176;-85
2024/01/29 07:24:10;;;;;;;3.13;2.37;;;6.60;82.50;;;;;;6348343;22;20195;-87
2024/01/29 07:32:19;;;;;;;5.13;3.43;;;6.70;81.30;;;;;;6332223;22;20164;-87
2024/01/29 07:37:30;;;;;;;1.57;1.47;;;6.80;81.10;;;;;;6332565;22;20174;-86
2024/01/29 07:39:59;;;;;;;2.17;1.93;;;6.80;81.10;;;;;;6333694;22;20170;-86
2024/01/29 07:42:27;;;;;;;1.10;1.00;;;6.90;81.50;;;;;;6335224;22;20615;-86
2024/01/29 07:45:26;;;;;;;1.20;1.10;;;6.90;81.10;;;;;;6330820;22;20196;-86
2024/01/29 07:47:55;;;;;;;3.80;2.40;;;6.90;81.10;;;;;;6332824;22;20177;-85
2024/01/29 07:50:37;;;;;;;1.13;1.07;;;7.00;81.10;;;;;;6333073;22;20176;-86
2024/01/29 07:53:06;;;;;;;1.50;1.40;;;7.00;81.00;;;;;;6334350;22;20189;-84
2024/01/29 07:55:49;;;;;;;2.17;1.53;;;7.10;80.90;;;;;;6333600;22;20167;-86
2024/01/29 08:01:16;;;;;;;10.73;2.37;;;7.10;80.20;;;;;;6333390;22;20702;-86
2024/01/29 08:03:54;;;;;;;1.77;1.67;;;7.20;80.00;;;;;;6332645;22;20172;-86
2024/01/29 08:06:22;;;;;;;4.73;2.23;;;7.20;80.00;;;;;;6335015;22;20214;-86
2024/01/29 08:08:51;;;;;;;1.90;1.63;;;7.20;79.70;;;;;;6335693;22;20921;-86
2024/01/29 08:11:19;;;;;;;1.70;1.57;;;7.30;79.70;;;;;;6335237;22;20171;-88
2024/01/29 08:13:48;;;;;;;2.23;2.13;;;7.30;79.70;;;;;;6333412;22;20178;-86
2024/01/29 08:16:46;;;;;;;2.37;1.20;;;7.40;79.70;;;;;;6336051;22;20164;-89
2024/01/29 08:19:44;;;;;;;5.80;2.73;;;7.40;80.40;;;;;;6335527;22;20165;-88
2024/01/29 08:22:13;;;;;;;2.63;2.17;;;7.50;79.10;;;;;;6333831;22;20264;-88
2024/01/29 08:24:42;;;;;;;5.60;1.63;;;7.50;79.20;;;;;;6334254;22;20252;-90
2024/01/29 08:30:09;;;;;;;1.97;1.80;;;7.60;79.20;;;;;;6333191;22;20175;-86
2024/01/29 08:32:37;;;;;;;2.37;2.17;;;7.70;79.20;;;;;;6335916;22;20171;-86
2024/01/29 08:35:23;;;;;;;1.50;1.40;;;7.70;78.80;;;;;;6331570;22;20172;-85
2024/01/29 08:37:51;;;;;;;3.00;2.30;;;7.70;78.60;;;;;;6332784;22;20168;-86
2024/01/29 08:40:20;;;;;;;1.47;1.37;;;7.70;78.10;;;;;;6333907;22;20239;-86
2024/01/29 08:42:49;;;;;;;3.37;2.13;;;7.70;78.10;;;;;;6334873;22;20411;-86
2024/01/29 08:45:20;;;;;;;2.53;2.33;;;7.80;78.40;;;;;;6332424;22;20208;-85
2024/01/29 08:47:48;;;;;;;2.73;2.27;;;7.80;78.40;;;;;;6335900;22;20506;-86
2024/01/29 08:55:46;;;;;;;5.10;2.70;;;7.90;78.30;;;;;;6333209;22;20507;-86
2024/01/29 09:00:58;;;;;;;6.23;2.73;;;7.90;78.10;;;;;;6332675;22;20168;-87
2024/01/29 09:03:27;;;;;;;5.30;1.47;;;7.90;78.10;;;;;;6330892;22;20170;-86
2024/01/29 09:05:56;;;;;;;3.23;2.17;;;8.00;78.30;;;;;;6332919;22;20249;-88
2024/01/29 09:08:28;;;;;;;8.23;2.63;;;8.10;78.30;;;;;;6334078;22;20173;-85
2024/01/29 09:13:52;;;;;;;2.33;2.13;;;8.10;78.00;;;;;;6330981;22;20160;-86
2024/01/29 09:16:34;;;;;;;1.77;1.67;;;8.20;77.50;;;;;;6334358;22;20223;-86
2024/01/29 09:19:03;;;;;;;2.07;1.73;;;8.30;77.30;;;;;;6336178;22;20171;-89
2024/01/29 09:21:34;;;;;;;2.23;2.03;;;8.30;76.40;;;;;;6335327;22;20174;-90
2024/01/29 09:24:05;;;;;;;2.03;1.80;;;8.30;76.90;;;;;;6334207;22;20164;-89
2024/01/29 09:26:34;;;;;;;2.97;2.60;;;8.40;77.10;;;;;;6336937;22;20192;-88
2024/01/29 09:29:02;;;;;;;3.67;2.60;;;8.40;76.50;;;;;;6337080;22;20164;-90
2024/01/29 09:31:45;;;;;;;4.37;2.17;;;8.50;76.00;;;;;;6334587;22;20171;-89
2024/01/29 09:34:27;;;;;;;8.80;2.07;;;8.60;76.10;;;;;;6332775;22;20495;-89
2024/01/29 09:36:56;;;;;;;1.97;1.23;;;8.60;76.40;;;;;;6335146;22;20180;-88
2024/01/29 09:39:40;;;;;;;2.13;2.03;;;8.60;76.30;;;;;;6335416;22;20160;-88
2024/01/29 09:42:24;;;;;;;2.97;2.03;;;8.70;76.40;;;;;;6336370;22;20498;-93
2024/01/29 09:44:57;;;;;;;9.20;4.37;;;8.70;76.00;;;;;;6335684;22;20245;-92
2024/01/29 09:50:24;;;;;;;1.63;1.53;;;8.80;76.20;;;;;;6335315;22;20168;-94
2024/01/29 09:52:56;;;;;;;3.07;2.77;;;8.90;75.20;;;;;;6335615;22;20161;-94
2024/01/29 09:55:28;;;;;;;4.33;2.43;;;8.90;75.10;;;;;;6335853;22;20175;-93
2024/01/29 10:00:55;;;;;;;2.73;1.47;;;9.00;75.30;;;;;;6352132;22;20183;-88
2024/01/29 10:03:39;;;;;;;2.73;1.77;;;9.00;74.80;;;;;;6338461;22;20374;-89
2024/01/29 10:06:08;;;;;;;2.20;2.00;;;9.10;75.10;;;;;;6338186;22;20203;-89
2024/01/29 10:08:37;;;;;;;2.97;2.13;;;9.10;75.00;;;;;;6335893;22;20203;-89
2024/01/29 10:11:08;;;;;;;2.87;2.00;;;9.20;73.70;;;;;;6333727;22;20171;-88
2024/01/29 10:13:36;;;;;;;1.17;1.17;;;9.20;72.80;;;;;;6333225;22;20167;-88
2024/01/29 10:16:05;;;;;;;2.90;1.97;;;9.20;72.60;;;;;;6333560;22;20169;-88
2024/01/29 10:18:34;;;;;;;3.28;2.38;;;9.30;72.70;;;;;;6335010;22;20382;-89
2024/01/29 10:21:17;;;;;;;1.47;1.10;;;9.20;72.80;;;;;;6331955;22;20215;-89
2024/01/29 10:23:45;;;;;;;1.10;1.10;;;9.30;73.30;;;;;;6332320;22;20192;-90
2024/01/29 10:26:17;;;;;;;2.03;1.63;;;9.40;73.60;;;;;;6333233;22;20192;-90
2024/01/29 10:28:45;;;;;;;2.73;2.30;;;9.40;73.50;;;;;;6334286;22;20164;-91
2024/01/29 10:31:16;;;;;;;1.10;1.10;;;9.50;73.60;;;;;;6334440;22;20596;-91
2024/01/29 10:33:44;;;;;;;2.47;1.93;;;9.50;73.70;;;;;;6332238;22;20663;-92
2024/01/29 10:36:14;;;;;;;3.93;2.27;;;9.60;73.80;;;;;;6333875;22;20170;-90
2024/01/29 10:38:46;;;;;;;3.90;1.33;;;9.60;73.60;;;;;;6333077;22;20175;-90
2024/01/29 10:41:33;;;;;;;2.10;1.47;;;9.70;72.60;;;;;;6333399;22;20221;-90
2024/01/29 10:44:05;;;;;;;2.00;1.83;;;9.80;71.90;;;;;;6331022;22;20247;-89
2024/01/29 10:49:21;;;;;;;1.87;1.73;;;9.80;71.60;;;;;;6332788;22;20171;-89
2024/01/29 10:57:18;;;;;;;0.40;0.40;;;9.90;69.00;;;;;;6332275;22;20172;-89
2024/01/29 10:59:48;;;;;;;1.17;1.07;;;9.90;68.80;;;;;;6334479;22;20161;-89
2024/01/29 11:02:17;;;;;;;0.40;0.40;;;9.80;64.70;;;;;;6274065;22;1377837;-90
2024/01/29 11:04:46;;;;;;;2.10;1.27;;;9.80;65.80;;;;;;6331997;22;20175;-88
2024/01/29 11:07:20;;;;;;;3.17;1.23;;;9.80;65.70;;;;;;6334059;22;20200;-90
2024/01/29 11:09:57;;;;;;;2.30;1.87;;;9.80;66.40;;;;;;6335272;22;20616;-89
2024/01/29 11:12:29;;;;;;;1.53;1.40;;;9.80;66.40;;;;;;6334549;22;20226;-89
2024/01/29 11:14:59;;;;;;;1.47;1.40;;;9.80;67.60;;;;;;6331422;22;20213;-89
2024/01/29 11:17:29;;;;;;;1.57;1.47;;;9.80;68.70;;;;;;6335303;22;20581;-89
2024/01/29 11:20:01;;;;;;;2.30;2.13;;;9.70;69.30;;;;;;6337793;22;20168;-92
2024/01/29 11:22:37;;;;;;;8.30;4.40;;;9.70;69.90;;;;;;6335594;22;20179;-85
2024/01/29 11:25:09;;;;;;;1.33;1.10;;;9.70;70.20;;;;;;6331561;22;20171;-87
2024/01/29 11:27:40;;;;;;;3.40;3.10;;;9.70;70.20;;;;;;6336058;22;20204;-86
2024/01/29 11:30:19;;;;;;;7.60;4.27;;;9.70;70.30;;;;;;6334779;22;20483;-83
2024/01/29 11:32:48;;;;;;;2.13;1.43;;;9.70;70.20;;;;;;6335702;22;20256;-82
2024/01/29 11:35:19;;;;;;;4.70;3.30;;;9.70;70.00;;;;;;6331455;22;20164;-82
2024/01/29 11:38:07;;;;;;;3.20;2.57;;;9.80;70.00;;;;;;6335014;22;20168;-85
2024/01/29 11:40:38;;;;;;;1.73;1.63;;;9.80;69.40;;;;;;6334709;22;20620;-85
2024/01/29 11:43:14;;;;;;;2.57;2.00;;;9.90;69.60;;;;;;6334136;22;20477;-85
2024/01/29 11:45:45;;;;;;;3.30;1.93;;;9.90;68.90;;;;;;6333128;22;20547;-85
2024/01/29 11:48:14;;;;;;;2.43;2.23;;;10.00;68.90;;;;;;6334771;22;20169;-84
2024/01/29 11:53:27;;;;;;;1.60;1.37;;;9.90;66.80;;;;;;6329244;22;20168;-85
2024/01/29 11:55:56;;;;;;;3.87;2.03;;;9.90;65.90;;;;;;6332134;22;20251;-84
2024/01/29 11:58:39;;;;;;;3.57;1.93;;;9.90;66.80;;;;;;6333335;22;20164;-85
2024/01/29 12:01:09;;;;;;;3.17;1.70;;;9.90;66.20;;;;;;6332951;22;20643;-85
2024/01/29 12:03:38;;;;;;;2.10;1.90;;;9.90;65.90;;;;;;6332203;22;20609;-85
2024/01/29 12:06:07;;;;;;;1.67;1.23;;;10.00;66.20;;;;;;6333595;22;20192;-86
2024/01/29 12:08:36;;;;;;;0.70;0.70;;;10.10;67.00;;;;;;6335534;22;20482;-86
2024/01/29 12:11:20;;;;;;;5.73;2.07;;;10.20;67.60;;;;;;6332555;22;20243;-85
2024/01/29 12:13:53;;;;;;;4.80;2.23;;;10.30;66.90;;;;;;6331127;22;20169;-85
2024/01/29 12:16:21;;;;;;;3.03;2.30;;;10.30;66.70;;;;;;6333142;22;20168;-85
2024/01/29 12:18:50;;;;;;;1.67;1.57;;;10.40;67.10;;;;;;6334809;22;20172;-85
2024/01/29 12:21:19;;;;;;;1.73;1.40;;;10.50;66.90;;;;;;6333885;22;20169;-85
2024/01/29 12:26:44;;;;;;;4.40;3.73;;;10.50;66.90;;;;;;6332310;22;20730;-85
2024/01/29 12:29:15;;;;;;;4.00;2.60;;;10.50;66.90;;;;;;6332781;22;20180;-84
2024/01/29 12:31:44;;;;;;;1.80;1.57;;;10.40;66.90;;;;;;6335273;22;20169;-85
2024/01/29 12:34:20;;;;;;;2.30;2.10;;;10.50;67.60;;;;;;6330346;22;20639;-85
2024/01/29 12:36:52;;;;;;;4.33;3.40;;;10.50;67.00;;;;;;6333889;22;20632;-86
2024/01/29 12:39:21;;;;;;;1.73;1.40;;;10.50;67.00;;;;;;6340829;22;20214;-85
2024/01/29 12:41:50;;;;;;;1.40;1.30;;;10.40;66.40;;;;;;6337299;22;20196;-83
2024/01/29 12:44:20;;;;;;;3.67;2.23;;;10.40;65.80;;;;;;6339936;22;20256;-84
2024/01/29 12:46:56;;;;;;;2.60;2.00;;;10.30;66.40;;;;;;6342741;22;20199;-83
2024/01/29 12:49:25;;;;;;;2.20;2.00;;;10.30;65.20;;;;;;6337010;22;20196;-84
2024/01/29 12:51:54;;;;;;;2.13;1.80;;;10.30;65.90;;;;;;6333924;22;20632;-84
2024/01/29 12:54:23;;;;;;;1.27;1.17;;;10.30;66.40;;;;;;6329763;22;20179;-84
2024/01/29 12:56:52;;;;;;;2.03;1.77;;;10.20;66.40;;;;;;6334148;22;20250;-84
2024/01/29 12:59:21;;;;;;;1.43;1.33;;;10.20;66.50;;;;;;6333702;22;20191;-83
2024/01/29 13:01:50;;;;;;;0.70;0.70;;;10.10;66.60;;;;;;6333794;22;20192;-84
2024/01/29 13:04:19;;;;;;;1.63;1.43;;;10.10;67.00;;;;;;6329136;22;20247;-82
2024/01/29 13:06:47;;;;;;;2.50;2.20;;;10.10;67.10;;;;;;6334016;22;20199;-84
2024/01/29 13:09:17;;;;;;;1.83;1.27;;;10.10;67.30;;;;;;6334206;22;20161;-83
2024/01/29 13:11:46;;;;;;;3.47;1.93;;;10.10;67.00;;;;;;6333586;22;20230;-84
2024/01/29 13:14:15;;;;;;;1.57;1.27;;;10.00;66.30;;;;;;6330269;22;20207;-83
2024/01/29 13:16:44;;;;;;;1.03;0.93;;;10.00;66.40;;;;;;6334517;22;20172;-83
2024/01/29 13:19:13;;;;;;;2.83;1.90;;;10.00;66.10;;;;;;6334719;22;20172;-83
2024/01/29 13:21:44;;;;;;;2.03;1.63;;;9.90;65.80;;;;;;6334684;22;20267;-82
2024/01/29 13:24:12;;;;;;;1.67;1.57;;;9.90;65.80;;;;;;6331185;22;20172;-83
2024/01/29 13:26:41;;;;;;;1.37;1.27;;;9.90;65.80;;;;;;6335268;22;20202;-83
2024/01/29 13:29:10;;;;;;;2.20;1.97;;;9.90;66.00;;;;;;6333692;22;20168;-83
2024/01/29 13:31:40;;;;;;;1.50;1.40;;;9.90;65.80;;;;;;6334606;22;20255;-83
2024/01/29 13:34:10;;;;;;;2.77;2.33;;;10.00;66.40;;;;;;6330924;22;20168;-83
2024/01/29 13:39:48;;;;;;;5.13;1.03;;;10.40;67.00;;;;;;6332898;22;20169;-84
2024/01/29 13:42:30;;;;;;;2.10;1.07;;;11.10;67.60;;;;;;6333423;22;20160;-83
2024/01/29 13:45:00;;;;;;;0.63;0.63;;;11.70;63.00;;;;;;6331052;22;20168;-84
2024/01/29 13:47:29;;;;;;;3.63;2.57;;;11.80;62.60;;;;;;6334573;22;20192;-84
2024/01/29 13:50:01;;;;;;;2.37;1.57;;;12.70;60.00;;;;;;6334146;22;20538;-83
2024/01/29 13:52:29;;;;;;;1.77;1.30;;;13.50;59.20;;;;;;6334054;22;20202;-83
2024/01/29 13:54:58;;;;;;;1.30;1.20;;;15.10;56.30;;;;;;6330979;22;20168;-83
2024/01/29 13:57:27;;;;;;;0.70;0.67;;;16.10;55.60;;;;;;6334380;22;20161;-83
2024/01/29 13:59:58;;;;;;;2.40;1.53;;;16.20;56.00;;;;;;6334109;22;20196;-84
2024/01/29 14:02:26;;;;;;;3.13;1.00;;;17.90;54.60;;;;;;6334517;22;20242;-84
2024/01/29 14:04:55;;;;;;;1.10;0.90;;;18.40;52.20;;;;;;6331165;22;20169;-83
2024/01/29 14:07:25;;;;;;;0.80;0.80;;;17.20;53.30;;;;;;6333836;22;20222;-84
2024/01/29 14:09:53;;;;;;;0.87;0.80;;;16.50;54.50;;;;;;6334024;22;20640;-84
2024/01/29 14:12:22;;;;;;;3.60;1.98;;;17.50;53.70;;;;;;6334591;22;20168;-84
2024/01/29 14:14:51;;;;;;;1.75;1.38;;;18.50;52.20;;;;;;6331305;22;20570;-84
2024/01/29 14:17:19;;;;;;;0.70;0.70;;;18.80;50.80;;;;;;6334480;22;20186;-84
2024/01/29 14:19:48;;;;;;;2.30;1.20;;;18.40;51.40;;;;;;6334314;22;20247;-85
2024/01/29 14:22:18;;;;;;;4.22;1.40;;;17.90;51.90;;;;;;6331755;22;20215;-84
2024/01/29 14:24:48;;;;;;;0.70;0.70;;;17.40;52.00;;;;;;6330859;22;20164;-84
2024/01/29 14:27:17;;;;;;;2.10;1.77;;;16.80;52.50;;;;;;6333063;22;20196;-84
2024/01/29 14:29:48;;;;;;;2.93;1.63;;;16.50;52.00;;;;;;6334105;22;20176;-84
2024/01/29 14:32:16;;;;;;;1.23;1.10;;;16.00;52.30;;;;;;6333481;22;20504;-85
2024/01/29 14:34:45;;;;;;;2.25;1.30;;;16.00;52.70;;;;;;6329425;22;20705;-84
2024/01/29 14:37:14;;;;;;;7.60;0.73;;;15.90;53.10;;;;;;6327001;22;20221;-84
2024/01/29 14:39:42;;;;;;;1.33;1.23;;;15.80;53.10;;;;;;6331909;22;20654;-83
2024/01/29 14:44:55;;;;;;;2.37;0.83;;;15.10;51.90;;;;;;6328937;22;20557;-82
2024/01/29 14:50:20;;;;;;;0.40;0.40;;;14.30;52.90;;;;;;6329594;22;20171;-82
2024/01/29 14:52:51;;;;;;;0.87;0.87;;;14.10;53.10;;;;;;6332144;22;20168;-83
2024/01/29 14:55:20;;;;;;;3.10;1.60;;;13.80;52.80;;;;;;6329488;22;20230;-82